createdAt,value
2022-10-18T00:00:12.577Z,19.48
2022-10-18T00:02:40.953Z,15.43
2022-10-18T00:05:10.311Z,17.60
2022-10-18T00:07:38.905Z,17.80
2022-10-18T00:10:11.419Z,20.20
2022-10-18T00:12:41.971Z,17.33
2022-10-18T00:15:13.513Z,16.80
2022-10-18T00:17:42.304Z,19.17
2022-10-18T00:20:12.883Z,19.52
2022-10-18T00:22:43.122Z,16.23
2022-10-18T00:25:11.699Z,17.35
2022-10-18T00:27:40.275Z,18.38
2022-10-18T00:30:12.676Z,18.90
2022-10-18T00:32:43.182Z,19.73
2022-10-18T00:35:11.654Z,15.27
2022-10-18T00:37:40.002Z,16.98
2022-10-18T00:40:10.525Z,14.00
2022-10-18T00:42:39.587Z,16.88
2022-10-18T00:45:25.780Z,17.45
2022-10-18T00:48:03.272Z,16.10
2022-10-18T00:50:35.341Z,13.93
2022-10-18T00:53:10.062Z,16.70
2022-10-18T00:55:38.449Z,20.35
2022-10-18T00:58:07.949Z,12.77
2022-10-18T01:00:40.935Z,16.70
2022-10-18T01:03:10.764Z,16.10
2022-10-18T01:05:49.282Z,16.55
2022-10-18T01:08:41.167Z,16.90
2022-10-18T01:11:36.029Z,16.05
2022-10-18T01:14:20.444Z,14.25
2022-10-18T01:17:00.537Z,12.68
2022-10-18T01:20:09.561Z,14.20
2022-10-18T01:22:44.582Z,15.13
2022-10-18T01:25:31.278Z,18.02
2022-10-18T01:28:14.045Z,15.00
2022-10-18T01:33:39.444Z,19.27
2022-10-18T01:36:15.298Z,18.88
2022-10-18T01:38:45.958Z,17.70
2022-10-18T01:41:16.168Z,20.65
2022-10-18T01:43:47.735Z,19.35
2022-10-18T01:46:23.347Z,21.70
2022-10-18T01:48:53.586Z,21.35
2022-10-18T01:51:26.611Z,19.30
2022-10-18T01:53:55.395Z,20.67
2022-10-18T01:56:36.533Z,23.48
2022-10-18T01:59:24.205Z,20.15
2022-10-18T02:02:07.520Z,23.30
2022-10-18T02:04:45.644Z,22.25
2022-10-18T02:07:26.145Z,23.30
2022-10-18T02:10:04.430Z,25.52
2022-10-18T02:12:34.997Z,23.80
2022-10-18T02:15:06.253Z,22.73
2022-10-18T02:17:36.150Z,24.35
2022-10-18T02:20:09.959Z,24.83
2022-10-18T02:22:42.434Z,24.52
2022-10-18T02:27:43.574Z,26.10
2022-10-18T02:30:13.459Z,33.45
2022-10-18T02:32:49.814Z,28.55
2022-10-18T02:35:26.323Z,28.10
2022-10-18T02:37:56.335Z,24.50
2022-10-18T02:40:25.576Z,22.17
2022-10-18T02:42:59.598Z,24.25
2022-10-18T02:45:28.762Z,26.63
2022-10-18T02:47:58.888Z,23.10
2022-10-18T02:50:27.890Z,23.15
2022-10-18T02:52:56.154Z,26.80
2022-10-18T02:55:25.265Z,21.70
2022-10-18T02:57:53.786Z,21.80
2022-10-18T03:00:22.300Z,23.73
2022-10-18T03:02:50.637Z,20.10
2022-10-18T03:05:20.898Z,21.38
2022-10-18T03:07:49.376Z,16.27
2022-10-18T03:10:18.041Z,16.10
2022-10-18T03:12:47.049Z,16.45
2022-10-18T03:15:15.696Z,22.20
2022-10-18T03:17:44.026Z,17.15
2022-10-18T03:20:13.881Z,17.05
2022-10-18T03:22:43.864Z,18.42
2022-10-18T03:25:12.124Z,17.58
2022-10-18T03:27:40.769Z,16.83
2022-10-18T03:30:11.908Z,14.70
2022-10-18T03:32:40.538Z,19.70
2022-10-18T03:35:10.855Z,15.70
2022-10-18T03:37:40.618Z,16.77
2022-10-18T03:40:12.780Z,19.13
2022-10-18T03:45:11.359Z,17.98
2022-10-18T03:47:40.019Z,19.30
2022-10-18T03:50:09.871Z,17.67
2022-10-18T03:52:38.222Z,15.18
2022-10-18T03:55:08.119Z,14.18
2022-10-18T03:57:37.837Z,16.27
2022-10-18T04:00:08.232Z,13.95
2022-10-18T04:02:40.426Z,15.68
2022-10-18T04:05:10.409Z,15.88
2022-10-18T04:07:38.763Z,14.20
2022-10-18T04:10:08.662Z,15.65
2022-10-18T04:12:38.248Z,13.90
2022-10-18T04:15:08.532Z,15.65
2022-10-18T04:17:37.140Z,10.95
2022-10-18T04:20:06.590Z,13.27
2022-10-18T04:22:35.030Z,12.30
2022-10-18T04:25:04.141Z,12.85
2022-10-18T04:27:32.793Z,12.45
2022-10-18T04:30:03.266Z,10.95
2022-10-18T04:32:31.839Z,13.43
2022-10-18T04:35:00.925Z,11.73
2022-10-18T04:37:29.872Z,12.88
2022-10-18T04:39:58.694Z,11.95
2022-10-18T04:42:29.251Z,14.45
2022-10-18T04:44:58.252Z,13.02
2022-10-18T04:47:28.490Z,11.98
2022-10-18T04:49:57.474Z,12.88
2022-10-18T04:52:25.838Z,12.43
2022-10-18T04:54:54.058Z,10.95
2022-10-18T04:57:22.357Z,11.95
2022-10-18T04:59:50.638Z,12.43
2022-10-18T05:02:19.291Z,11.65
2022-10-18T05:04:49.284Z,13.00
2022-10-18T05:07:18.156Z,13.48
2022-10-18T05:09:46.534Z,13.27
2022-10-18T05:12:14.989Z,13.35
2022-10-18T05:14:43.699Z,14.93
2022-10-18T05:17:11.996Z,16.60
2022-10-18T05:19:40.884Z,16.77
2022-10-18T05:22:10.766Z,17.95
2022-10-18T05:24:39.205Z,20.30
2022-10-18T05:27:08.023Z,22.23
2022-10-18T05:29:36.424Z,24.08
2022-10-18T05:32:05.698Z,26.42
2022-10-18T05:34:34.339Z,34.00
2022-10-18T05:37:02.968Z,30.48
2022-10-18T05:39:33.211Z,32.42
2022-10-18T05:42:02.518Z,35.17
2022-10-18T05:44:30.942Z,34.20
2022-10-18T05:46:59.347Z,38.47
2022-10-18T05:49:27.639Z,39.75
2022-10-18T05:51:56.283Z,41.65
2022-10-18T05:54:24.550Z,41.97
2022-10-18T05:56:54.499Z,41.00
2022-10-18T05:59:22.876Z,44.17
2022-10-18T06:01:51.410Z,42.42
2022-10-18T06:04:19.681Z,38.78
2022-10-18T06:06:48.151Z,41.95
2022-10-18T06:09:16.844Z,43.13
2022-10-18T06:11:45.431Z,47.85
2022-10-18T06:14:15.261Z,44.28
2022-10-18T06:16:43.873Z,42.78
2022-10-18T06:19:12.405Z,41.70
2022-10-18T06:21:40.848Z,43.10
2022-10-18T06:24:09.109Z,42.67
2022-10-18T06:26:37.703Z,43.58
2022-10-18T06:29:06.416Z,42.95
2022-10-18T06:31:36.450Z,42.42
2022-10-18T06:34:04.940Z,44.42
2022-10-18T06:36:33.816Z,44.95
2022-10-18T06:39:02.732Z,46.50
2022-10-18T06:41:31.499Z,47.92
2022-10-18T06:44:17.413Z,46.80
2022-10-18T06:46:48.717Z,47.55
2022-10-18T06:49:19.213Z,49.65
2022-10-18T06:51:48.053Z,47.28
2022-10-18T06:54:18.689Z,45.67
2022-10-18T06:56:48.106Z,49.58
2022-10-18T06:59:16.451Z,52.20
2022-10-18T07:01:46.371Z,47.88
2022-10-18T07:04:17.557Z,53.83
2022-10-18T07:06:46.289Z,48.78
2022-10-18T07:09:14.954Z,46.97
2022-10-18T07:11:43.392Z,43.50
2022-10-18T07:14:16.051Z,47.83
2022-10-18T07:16:46.418Z,48.75
2022-10-18T07:19:14.991Z,46.38
2022-10-18T07:21:43.309Z,45.28
2022-10-18T07:24:11.799Z,45.33
2022-10-18T07:26:40.663Z,46.00
2022-10-18T07:29:13.168Z,43.97
2022-10-18T07:34:15.201Z,44.03
2022-10-18T07:36:43.592Z,45.35
2022-10-18T07:39:11.891Z,45.30
2022-10-18T07:41:40.322Z,44.20
2022-10-18T07:44:09.255Z,43.88
2022-10-18T07:46:37.991Z,47.08
2022-10-18T07:49:06.412Z,44.72
2022-10-18T07:51:36.334Z,47.65
2022-10-18T07:54:05.360Z,46.63
2022-10-18T07:56:33.748Z,49.15
2022-10-18T07:59:06.259Z,47.80
2022-10-18T08:04:07.461Z,46.15
2022-10-18T08:06:39.066Z,48.17
2022-10-18T08:09:08.009Z,47.60
2022-10-18T08:11:36.201Z,47.80
2022-10-18T08:14:08.968Z,48.22
2022-10-18T08:16:40.158Z,48.50
2022-10-18T08:19:09.617Z,47.72
2022-10-18T08:21:39.303Z,45.17
2022-10-18T08:24:07.908Z,50.63
2022-10-18T08:26:36.564Z,48.80
2022-10-18T08:29:22.539Z,45.60
2022-10-18T08:31:53.368Z,49.30
2022-10-18T08:34:21.788Z,46.40
2022-10-18T08:36:51.787Z,46.72
2022-10-18T08:39:20.291Z,45.75
2022-10-18T08:42:14.247Z,44.03
2022-10-18T08:44:48.033Z,44.50
2022-10-18T08:47:19.572Z,49.28
2022-10-18T08:49:53.091Z,45.92
2022-10-18T08:52:35.682Z,47.85
2022-10-18T08:55:11.503Z,48.65
2022-10-18T08:57:40.146Z,46.70
2022-10-18T09:00:17.417Z,47.50
2022-10-18T09:03:07.419Z,44.88
2022-10-18T09:05:46.349Z,45.08
2022-10-18T09:08:51.820Z,44.67
2022-10-18T09:11:35.118Z,44.67
2022-10-18T09:14:42.522Z,40.70
2022-10-18T09:17:27.405Z,41.88
2022-10-18T09:20:12.504Z,41.13
2022-10-18T09:22:53.620Z,37.80
2022-10-18T09:25:26.121Z,37.28
2022-10-18T09:30:41.657Z,38.70
2022-10-18T09:33:28.944Z,41.50
2022-10-18T09:36:01.705Z,40.67
2022-10-18T09:38:44.482Z,40.65
2022-10-18T09:43:56.208Z,44.42
2022-10-18T09:46:29.090Z,44.80
2022-10-18T09:49:04.928Z,38.75
2022-10-18T09:51:38.306Z,38.47
2022-10-18T09:54:24.593Z,42.15
2022-10-18T09:57:04.733Z,45.45
2022-10-18T09:59:41.221Z,43.95
2022-10-18T10:02:15.956Z,43.70
2022-10-18T10:04:44.749Z,41.40
2022-10-18T10:07:18.063Z,41.42
2022-10-18T10:09:48.576Z,42.65
2022-10-18T10:12:32.496Z,40.67
2022-10-18T10:15:21.377Z,39.28
2022-10-18T10:18:02.373Z,36.85
2022-10-18T10:20:38.198Z,34.90
2022-10-18T10:23:10.204Z,39.50
2022-10-18T10:25:40.857Z,37.42
2022-10-18T10:28:19.622Z,35.88
2022-10-18T10:30:48.519Z,36.45
2022-10-18T10:33:36.221Z,35.92
2022-10-18T10:36:16.963Z,35.00
2022-10-18T10:38:45.455Z,35.45
2022-10-18T10:41:23.265Z,36.33
2022-10-18T10:43:54.923Z,33.33
2022-10-18T10:46:23.996Z,34.40
2022-10-18T10:49:14.181Z,34.20
2022-10-18T10:54:28.625Z,35.30
2022-10-18T10:57:02.156Z,32.67
2022-10-18T11:02:23.413Z,31.45
2022-10-18T11:04:54.342Z,29.02
2022-10-18T11:07:28.864Z,30.05
2022-10-18T11:10:04.727Z,25.52
2022-10-18T11:12:37.658Z,25.38
2022-10-18T11:15:22.113Z,27.05
2022-10-18T11:18:10.280Z,27.48
2022-10-18T11:20:44.511Z,26.17
2022-10-18T11:23:15.048Z,32.35
2022-10-18T11:26:10.749Z,34.42
2022-10-18T11:29:01.811Z,37.53
2022-10-18T11:31:37.009Z,38.97
2022-10-18T11:34:33.545Z,35.47
2022-10-18T11:37:34.531Z,38.95
2022-10-18T11:40:22.957Z,38.45
2022-10-18T11:43:01.159Z,38.08
2022-10-18T11:45:43.545Z,38.38
2022-10-18T11:48:42.966Z,39.97
2022-10-18T11:51:29.655Z,35.55
2022-10-18T11:54:33.088Z,36.33
2022-10-18T11:57:17.612Z,31.30
2022-10-18T11:59:59.658Z,30.13
2022-10-18T12:03:01.247Z,27.33
2022-10-18T12:05:33.202Z,29.00
2022-10-18T12:08:09.072Z,32.55
2022-10-18T12:10:46.114Z,28.48
2022-10-18T12:13:35.759Z,30.13
2022-10-18T12:16:06.725Z,30.00
2022-10-18T12:18:37.427Z,29.77
2022-10-18T12:21:08.242Z,29.05
2022-10-18T12:23:45.531Z,29.15
2022-10-18T12:26:14.674Z,28.70
2022-10-18T12:28:59.380Z,27.48
2022-10-18T12:31:35.283Z,28.20
2022-10-18T12:34:12.141Z,26.13
2022-10-18T12:37:15.400Z,25.17
2022-10-18T12:40:09.029Z,27.13
2022-10-18T12:42:44.069Z,27.10
2022-10-18T12:45:30.380Z,26.55
2022-10-18T12:48:02.796Z,27.25
2022-10-18T12:50:36.467Z,30.85
2022-10-18T12:53:20.277Z,27.25
2022-10-18T12:55:53.612Z,30.42
2022-10-18T12:58:32.475Z,29.85
2022-10-18T13:01:05.313Z,28.85
2022-10-18T13:04:01.802Z,28.80
2022-10-18T13:07:18.743Z,29.58
2022-10-18T13:10:38.306Z,29.33
2022-10-18T13:13:41.974Z,28.52
2022-10-18T13:16:34.056Z,28.73
2022-10-18T13:19:24.281Z,27.07
2022-10-18T13:22:11.839Z,24.50
2022-10-18T13:24:46.386Z,25.75
2022-10-18T13:27:36.358Z,25.52
2022-10-18T13:30:43.263Z,23.75
2022-10-18T13:33:32.508Z,22.42
2022-10-18T13:36:04.198Z,21.70
2022-10-18T13:38:48.764Z,22.25
2022-10-18T13:41:20.808Z,19.27
2022-10-18T13:44:13.425Z,22.83
2022-10-18T13:47:12.244Z,21.15
2022-10-18T13:50:04.051Z,19.55
2022-10-18T13:52:54.652Z,18.98
2022-10-18T13:55:55.832Z,17.30
2022-10-18T13:58:49.004Z,17.83
2022-10-18T14:01:40.285Z,17.55
2022-10-18T14:04:39.561Z,16.67
2022-10-18T14:07:10.174Z,16.75
2022-10-18T14:09:49.971Z,17.42
2022-10-18T14:12:32.005Z,18.10
2022-10-18T14:15:09.355Z,19.00
2022-10-18T14:17:46.230Z,18.83
2022-10-18T14:20:27.357Z,17.77
2022-10-18T14:23:07.946Z,17.75
2022-10-18T14:25:39.393Z,18.35
2022-10-18T14:28:14.301Z,20.08
2022-10-18T14:30:57.681Z,17.48
2022-10-18T14:33:36.378Z,17.33
2022-10-18T14:36:14.654Z,19.65
2022-10-18T14:38:52.440Z,18.92
2022-10-18T14:41:24.952Z,18.38
2022-10-18T14:46:29.108Z,17.70
2022-10-18T14:49:06.620Z,19.23
2022-10-18T14:51:37.815Z,17.77
2022-10-18T14:54:09.188Z,17.00
2022-10-18T14:56:41.312Z,16.88
2022-10-18T14:59:20.264Z,17.17
2022-10-18T15:01:59.784Z,18.58
2022-10-18T15:04:33.255Z,18.83
2022-10-18T15:07:04.831Z,20.00
2022-10-18T15:09:36.490Z,18.10
2022-10-18T15:12:08.167Z,18.83
2022-10-18T15:14:37.829Z,19.80
2022-10-18T15:17:14.137Z,19.50
2022-10-18T15:19:59.402Z,20.35
2022-10-18T15:22:33.008Z,20.08
2022-10-18T15:25:16.958Z,19.92
2022-10-18T15:27:49.004Z,18.67
2022-10-18T15:30:25.055Z,19.73
2022-10-18T15:32:56.884Z,17.20
2022-10-18T15:35:32.894Z,19.20
2022-10-18T15:38:03.674Z,16.27
2022-10-18T15:40:42.909Z,15.75
2022-10-18T15:43:44.692Z,15.98
2022-10-18T15:46:33.126Z,16.17
2022-10-18T15:49:57.172Z,9.45
2022-10-18T15:52:48.370Z,11.27
2022-10-18T15:55:53.814Z,9.20
2022-10-18T15:58:26.651Z,9.48
2022-10-18T16:01:00.769Z,8.25
2022-10-18T16:03:29.988Z,8.55
2022-10-18T16:06:06.608Z,9.20
2022-10-18T16:08:42.399Z,8.60
2022-10-18T16:11:16.882Z,7.95
2022-10-18T16:13:46.666Z,7.68
2022-10-18T16:16:18.116Z,8.30
2022-10-18T16:18:47.633Z,8.30
2022-10-18T16:21:20.586Z,8.80
2022-10-18T16:23:51.389Z,8.63
2022-10-18T16:26:22.432Z,7.85
2022-10-18T16:28:52.469Z,9.18
2022-10-18T16:31:24.245Z,8.85
2022-10-18T16:33:54.916Z,7.95
2022-10-18T16:36:26.114Z,10.55
2022-10-18T16:38:57.199Z,8.60
2022-10-18T16:41:26.287Z,9.27
2022-10-18T16:43:56.114Z,9.73
2022-10-18T16:46:32.184Z,12.07
2022-10-18T16:49:01.777Z,10.73
2022-10-18T16:51:31.013Z,10.55
2022-10-18T16:54:01.589Z,11.82
2022-10-18T16:56:32.490Z,11.00
2022-10-18T16:59:02.315Z,11.55
2022-10-18T17:01:33.110Z,11.47
2022-10-18T17:04:09.123Z,11.85
2022-10-18T17:06:38.037Z,12.88
2022-10-18T17:09:08.241Z,12.98
2022-10-18T17:11:38.620Z,15.65
2022-10-18T17:14:07.813Z,12.93
2022-10-18T17:16:39.454Z,16.05
2022-10-18T17:19:14.788Z,15.07
2022-10-18T17:21:43.678Z,14.82
2022-10-18T17:24:13.628Z,15.35
2022-10-18T17:26:42.672Z,14.35
2022-10-18T17:29:12.302Z,17.10
2022-10-18T17:31:41.326Z,13.85
2022-10-18T17:34:10.690Z,13.43
2022-10-18T17:36:40.900Z,15.35
2022-10-18T17:39:13.731Z,14.85
2022-10-18T17:44:13.365Z,15.90
2022-10-18T17:46:43.512Z,16.60
2022-10-18T17:49:14.206Z,16.00
2022-10-18T17:51:45.563Z,17.55
2022-10-18T17:54:16.656Z,17.25
2022-10-18T17:56:48.143Z,18.40
2022-10-18T17:59:19.711Z,17.75
2022-10-18T18:01:50.945Z,18.85
2022-10-18T18:04:20.525Z,18.73
2022-10-18T18:06:49.616Z,20.13
2022-10-18T18:09:21.502Z,21.10
2022-10-18T18:11:51.940Z,19.55
2022-10-18T18:14:21.990Z,17.70
2022-10-18T18:16:51.809Z,19.42
2022-10-18T18:19:21.243Z,22.55
2022-10-18T18:21:53.725Z,22.25
2022-10-18T18:24:26.095Z,21.27
2022-10-18T18:26:57.573Z,17.17
2022-10-18T18:29:29.661Z,21.67
2022-10-18T18:32:00.135Z,26.42
2022-10-18T18:34:28.772Z,23.02
2022-10-18T18:36:58.253Z,21.15
2022-10-18T18:39:30.675Z,23.27
2022-10-18T18:41:59.161Z,22.00
2022-10-18T18:44:27.638Z,21.70
2022-10-18T18:46:56.621Z,25.17
2022-10-18T18:49:26.996Z,24.20
2022-10-18T18:51:55.510Z,21.98
2022-10-18T18:54:24.863Z,22.52
2022-10-18T18:56:54.755Z,21.48
2022-10-18T18:59:23.011Z,23.08
2022-10-18T19:01:51.539Z,23.40
2022-10-18T19:04:19.779Z,21.27
2022-10-18T19:06:48.382Z,23.08
2022-10-18T19:09:21.988Z,24.60
2022-10-18T19:11:52.927Z,22.15
2022-10-18T19:14:23.979Z,24.17
2022-10-18T19:16:57.465Z,25.15
2022-10-18T19:19:28.204Z,22.92
2022-10-18T19:21:59.270Z,23.15
2022-10-18T19:24:31.234Z,25.15
2022-10-18T19:27:02.239Z,24.95
2022-10-18T19:29:34.713Z,26.45
2022-10-18T19:34:34.291Z,25.90
2022-10-18T19:37:03.230Z,25.15
2022-10-18T19:39:33.639Z,21.77
2022-10-18T19:42:04.554Z,23.65
2022-10-18T19:44:36.696Z,24.40
2022-10-18T19:47:05.337Z,24.17
2022-10-18T19:49:34.090Z,26.30
2022-10-18T19:52:02.472Z,25.70
2022-10-18T19:54:30.892Z,26.77
2022-10-18T19:56:59.195Z,27.70
2022-10-18T19:59:27.891Z,26.83
2022-10-18T20:01:57.638Z,27.98
2022-10-18T20:04:26.143Z,25.13
2022-10-18T20:06:54.682Z,26.05
2022-10-18T20:09:23.697Z,26.23
2022-10-18T20:11:52.026Z,27.10
2022-10-18T20:14:21.178Z,25.15
2022-10-18T20:16:49.814Z,26.13
2022-10-18T20:19:20.505Z,23.38
2022-10-18T20:21:48.921Z,24.67
2022-10-18T20:24:17.427Z,23.90
2022-10-18T20:26:46.002Z,26.08
2022-10-18T20:29:14.990Z,28.92
2022-10-18T20:31:43.492Z,22.52
2022-10-18T20:34:13.656Z,24.98
2022-10-18T20:36:43.635Z,23.33
2022-10-18T20:39:12.226Z,25.60
2022-10-18T20:41:41.883Z,24.63
2022-10-18T20:44:16.103Z,26.92
2022-10-18T20:46:45.425Z,25.20
2022-10-18T20:49:16.413Z,26.38
2022-10-18T20:51:46.385Z,27.38
2022-10-18T20:54:16.418Z,28.65
2022-10-18T20:56:45.201Z,25.33
2022-10-18T20:59:14.124Z,28.05
2022-10-18T21:01:43.366Z,23.48
2022-10-18T21:04:11.944Z,25.48
2022-10-18T21:06:42.392Z,28.20
2022-10-18T21:09:14.894Z,22.60
2022-10-18T21:11:46.369Z,26.13
2022-10-18T21:14:18.255Z,26.13
2022-10-18T21:16:48.011Z,24.55
2022-10-18T21:19:19.195Z,27.35
2022-10-18T21:21:50.995Z,26.63
2022-10-18T21:24:22.586Z,25.40
2022-10-18T21:26:51.147Z,25.10
2022-10-18T21:29:22.464Z,27.25
2022-10-18T21:31:55.551Z,29.23
2022-10-18T21:34:24.311Z,27.02
2022-10-18T21:36:52.965Z,26.20
2022-10-18T21:39:25.264Z,27.33
2022-10-18T21:41:54.108Z,28.30
2022-10-18T21:44:22.643Z,26.45
2022-10-18T21:46:51.663Z,25.58
2022-10-18T21:49:23.433Z,23.58
2022-10-18T21:51:51.782Z,20.20
2022-10-18T21:54:20.221Z,22.20
2022-10-18T21:56:51.159Z,20.98
2022-10-18T21:59:19.438Z,22.15
2022-10-18T22:01:48.145Z,19.38
2022-10-18T22:04:22.666Z,19.70
2022-10-18T22:06:52.021Z,18.30
2022-10-18T22:09:22.172Z,21.60
2022-10-18T22:11:54.512Z,21.35
2022-10-18T22:14:23.635Z,20.98
2022-10-18T22:16:52.120Z,22.48
2022-10-18T22:19:20.874Z,22.15
2022-10-18T22:21:49.898Z,22.85
2022-10-18T22:24:18.772Z,21.90
2022-10-18T22:26:48.140Z,22.33
2022-10-18T22:29:20.343Z,20.45
2022-10-18T22:31:52.294Z,20.88
2022-10-18T22:34:23.182Z,21.08
2022-10-18T22:36:52.024Z,18.92
2022-10-18T22:39:20.929Z,17.35
2022-10-18T22:41:54.184Z,20.15
2022-10-18T22:44:24.379Z,19.58
2022-10-18T22:46:53.006Z,19.52
2022-10-18T22:49:21.942Z,17.48
2022-10-18T22:51:50.262Z,20.30
2022-10-18T22:54:18.985Z,19.58
2022-10-18T22:56:47.352Z,20.90
2022-10-18T22:59:16.132Z,20.75
2022-10-18T23:01:46.062Z,18.55
2022-10-18T23:04:14.746Z,19.23
2022-10-18T23:06:43.029Z,18.92
2022-10-18T23:09:13.128Z,20.50
2022-10-18T23:11:42.381Z,20.73
2022-10-18T23:14:12.245Z,18.02
2022-10-18T23:16:40.732Z,19.38
2022-10-18T23:19:17.273Z,17.33
2022-10-18T23:21:45.871Z,17.08
2022-10-18T23:24:14.252Z,17.02
2022-10-18T23:26:45.315Z,18.95
2022-10-18T23:29:13.784Z,19.52
2022-10-18T23:31:42.385Z,18.30
2022-10-18T23:34:12.291Z,20.35
2022-10-18T23:36:41.111Z,16.15
2022-10-18T23:39:09.576Z,18.10
2022-10-18T23:41:38.002Z,18.70
2022-10-18T23:44:09.030Z,17.02
2022-10-18T23:46:37.454Z,19.70
2022-10-18T23:49:05.979Z,20.23
2022-10-18T23:51:35.778Z,17.58
2022-10-18T23:54:04.191Z,18.85
2022-10-18T23:56:32.475Z,18.20
2022-10-18T23:59:00.970Z,18.55
